Time;durP1;ratioP1;P1;durP2;ratioP2;P2;SDS_P1;SDS_P2;PMS_P1;PMS_P2;Temp;Humidity;BMP_temperature;BMP_pressure;BME280_temperature;BME280_humidity;BME280_pressure;Samples;Min_cycle;Max_cycle;Signal;HPM_P1;HPM_P2
2024/01/15 16:06:38;;;;;;;;;;;-1.90;99.90;;;;;;5072094;28;19921;-95
2024/01/15 16:09:03;;;;;;;;;;;-1.90;99.90;;;;;;5034019;28;20370;-94
2024/01/15 16:11:29;;;;;;;;;;;-1.90;99.90;;;;;;5034003;28;19936;-95
2024/01/15 16:13:54;;;;;;;;;;;-1.80;99.90;;;;;;5033721;28;19945;-96
2024/01/15 16:16:20;;;;;;;;;;;-1.70;99.90;;;;;;5034710;28;19916;-95
2024/01/15 16:18:45;;;;;;;;;;;-1.60;99.90;;;;;;5041807;28;20288;-96
2024/01/15 16:21:11;;;;;;;;;;;-1.50;99.90;;;;;;5054447;28;20018;-96
2024/01/15 16:23:36;;;;;;;;;;;-1.50;99.90;;;;;;5057080;28;20307;-95
2024/01/15 16:26:02;;;;;;;;;;;-1.30;99.90;;;;;;5035915;28;19984;-95
2024/01/15 16:28:28;;;;;;;;;;;-1.30;99.90;;;;;;5034056;28;19917;-95
2024/01/15 16:30:53;;;;;;;;;;;-1.20;99.90;;;;;;5033865;28;19913;-95
2024/01/15 16:33:19;;;;;;;;;;;-1.20;99.90;;;;;;5033873;28;19921;-95
2024/01/15 16:35:44;;;;;;;;;;;-1.10;99.90;;;;;;5033710;28;20284;-96
2024/01/15 16:38:11;;;;;;;;;;;-1.10;99.90;;;;;;5035802;28;19909;-95
2024/01/15 16:40:38;;;;;;;;;;;-1.00;99.90;;;;;;5032341;28;19909;-96
2024/01/15 16:43:08;;;;;;;;;;;-1.00;99.90;;;;;;5041503;28;19909;-96
2024/01/15 16:45:33;;;;;;;;;;;-0.90;99.90;;;;;;5036061;28;19914;-95
2024/01/15 16:47:59;;;;;;;;;;;-0.90;99.90;;;;;;5020032;28;19916;-96
2024/01/15 16:50:24;;;;;;;;;;;-0.90;99.90;;;;;;5037999;28;19912;-96
2024/01/15 16:52:50;;;;;;;;;;;-0.80;99.90;;;;;;5055386;28;19913;-95
2024/01/15 16:55:16;;;;;;;;;;;-0.80;99.90;;;;;;5056055;28;19916;-96
2024/01/15 16:57:42;;;;;;;;;;;-0.80;99.90;;;;;;5054321;28;19909;-96
2024/01/15 17:00:08;;;;;;;;;;;-0.80;99.90;;;;;;5058016;28;20272;-96
2024/01/15 17:02:40;;;;;;;;;;;-0.80;99.90;;;;;;5040853;28;19997;-96
2024/01/15 17:08:26;;;;;;;;;;;-0.80;99.90;;;;;;5055334;28;19920;-96
2024/01/15 17:10:51;;;;;;;;;;;-0.80;99.90;;;;;;5023393;28;19914;-96
2024/01/15 17:13:17;;;;;;;;;;;-0.80;99.90;;;;;;5044338;28;19909;-96
2024/01/15 17:15:42;;;;;;;;;;;-0.80;99.90;;;;;;5041788;28;19995;-96
2024/01/15 17:18:08;;;;;;;;;;;-0.80;99.90;;;;;;5021825;28;19913;-96
2024/01/15 17:20:33;;;;;;;;;;;-0.80;99.90;;;;;;5026749;28;19948;-96
2024/01/15 17:22:59;;;;;;;;;;;-0.80;99.90;;;;;;5043158;28;19909;-96
2024/01/15 17:25:25;;;;;;;;;;;-0.80;99.90;;;;;;5020955;28;20023;-96
2024/01/15 17:27:50;;;;;;;;;;;-0.80;99.90;;;;;;5019706;28;19963;-95
2024/01/15 17:30:16;;;;;;;;;;;-0.80;99.90;;;;;;5023796;28;19966;-95
2024/01/15 17:32:42;;;;;;;;;;;-0.80;99.90;;;;;;5021674;28;19913;-96
2024/01/15 17:35:08;;;;;;;;;;;-0.80;99.90;;;;;;5020834;28;19920;-96
2024/01/15 17:37:34;;;;;;;;;;;-0.80;99.90;;;;;;5020916;28;19909;-96
2024/01/15 17:39:59;;;;;;;;;;;-0.80;99.90;;;;;;5021981;28;19915;-96
2024/01/15 17:42:25;;;;;;;;;;;-0.80;99.90;;;;;;5020015;28;19913;-95
2024/01/15 17:44:51;;;;;;;;;;;-0.80;99.90;;;;;;5019437;28;19939;-93
2024/01/15 17:47:16;;;;;;;;;;;-0.90;99.90;;;;;;5018934;28;20397;-93
2024/01/15 17:49:42;;;;;;;;;;;-0.90;99.90;;;;;;5018977;28;19909;-94
2024/01/15 17:52:08;;;;;;;;;;;-0.80;99.90;;;;;;5019097;28;19927;-95
2024/01/15 17:54:33;;;;;;;;;;;-0.90;99.90;;;;;;5019262;28;19913;-95
2024/01/15 17:56:59;;;;;;;;;;;-0.90;99.90;;;;;;5033648;28;19961;-96
2024/01/15 17:59:24;;;;;;;;;;;-0.90;99.90;;;;;;5024490;28;19917;-96
2024/01/15 18:01:51;;;;;;;;;;;-0.90;99.90;;;;;;5016040;28;19992;-96
2024/01/15 18:04:19;;;;;;;;;;;-0.90;99.90;;;;;;4999839;28;19918;-96
2024/01/15 18:06:47;;;;;;;;;;;-0.90;99.90;;;;;;5006028;28;19913;-96
2024/01/15 18:09:12;;;;;;;;;;;-0.90;99.90;;;;;;5022623;28;19921;-95
2024/01/15 18:11:38;;;;;;;;;;;-0.90;99.90;;;;;;5013840;28;19913;-94
2024/01/15 18:14:04;;;;;;;;;;;-0.80;99.90;;;;;;5008218;28;19909;-96
2024/01/15 18:16:30;;;;;;;;;;;-0.80;99.90;;;;;;5004734;28;19956;-94
2024/01/15 18:18:55;;;;;;;;;;;-0.90;99.90;;;;;;5018454;28;19909;-95
2024/01/15 18:21:21;;;;;;;;;;;-0.80;99.90;;;;;;5023383;28;19917;-94
2024/01/15 18:23:47;;;;;;;;;;;-0.80;99.90;;;;;;5014263;28;19956;-96
2024/01/15 18:26:15;;;;;;;;;;;-0.80;99.90;;;;;;5010238;28;20258;-95
2024/01/15 18:28:41;;;;;;;;;;;-0.80;99.90;;;;;;5025410;28;19913;-93
2024/01/15 18:31:07;;;;;;;;;;;-0.80;99.90;;;;;;5018259;28;19951;-95
2024/01/15 18:33:36;;;;;;;;;;;-0.80;99.90;;;;;;5018294;28;19913;-96
2024/01/15 18:36:03;;;;;;;;;;;-0.80;99.90;;;;;;5018435;28;20353;-92
2024/01/15 18:38:30;;;;;;;;;;;-0.80;99.90;;;;;;5016575;28;19921;-93
2024/01/15 18:40:56;;;;;;;;;;;-0.80;99.90;;;;;;4998411;28;19959;-92
2024/01/15 18:43:21;;;;;;;;;;;-0.80;99.90;;;;;;5011570;28;20003;-95
2024/01/15 18:45:47;;;;;;;;;;;-0.80;99.90;;;;;;5017833;28;19924;-93
2024/01/15 18:48:13;;;;;;;;;;;-0.80;99.90;;;;;;5018327;28;20018;-94
2024/01/15 18:50:39;;;;;;;;;;;-0.70;99.90;;;;;;5017953;28;19910;-93
2024/01/15 18:53:04;;;;;;;;;;;-0.70;99.90;;;;;;5024680;28;19913;-92
2024/01/15 18:55:30;;;;;;;;;;;-0.60;99.90;;;;;;5037750;28;19948;-95
2024/01/15 18:57:55;;;;;;;;;;;-0.60;99.90;;;;;;5026192;28;19909;-95
2024/01/15 19:00:23;;;;;;;;;;;-0.50;99.90;;;;;;5017609;28;19909;-94
2024/01/15 19:02:49;;;;;;;;;;;-0.50;99.90;;;;;;5017939;28;19910;-95
2024/01/15 19:05:15;;;;;;;;;;;-0.50;99.90;;;;;;5018170;28;19928;-93
2024/01/15 19:07:40;;;;;;;;;;;-0.40;99.90;;;;;;5018178;28;19917;-95
2024/01/15 19:10:06;;;;;;;;;;;-0.40;99.90;;;;;;5034739;28;19916;-94
2024/01/15 19:12:32;;;;;;;;;;;-0.30;99.90;;;;;;5034928;28;19910;-94
2024/01/15 19:14:58;;;;;;;;;;;-0.30;99.90;;;;;;5019177;28;19920;-94
2024/01/15 19:17:26;;;;;;;;;;;-0.30;99.90;;;;;;5019547;28;19913;-95
2024/01/15 19:19:52;;;;;;;;;;;-0.20;99.90;;;;;;5012757;28;19919;-93
2024/01/15 19:22:20;;;;;;;;;;;-0.20;99.90;;;;;;5014453;28;20004;-94
2024/01/15 19:24:46;;;;;;;;;;;-0.20;99.90;;;;;;5020206;28;19913;-94
2024/01/15 19:27:12;;;;;;;;;;;-0.20;99.90;;;;;;5023603;28;19960;-95
2024/01/15 19:29:37;;;;;;;;;;;-0.10;99.90;;;;;;5017544;28;19913;-94
2024/01/15 19:32:03;;;;;;;;;;;-0.10;99.90;;;;;;5017412;28;19909;-92
2024/01/15 19:34:28;;;;;;;;;;;-0.10;99.90;;;;;;5017280;28;20342;-95
2024/01/15 19:36:54;;;;;;;;;;;0.00;99.90;;;;;;5017714;28;19963;-94
2024/01/15 19:39:21;;;;;;;;;;;0.00;99.90;;;;;;5016846;28;19909;-94
2024/01/15 19:41:47;;;;;;;;;;;0.00;99.90;;;;;;5017249;28;20375;-94
2024/01/15 19:44:12;;;;;;;;;;;0.00;99.90;;;;;;5016967;28;19948;-93
2024/01/15 19:50:02;;;;;;;;;;;0.10;99.90;;;;;;5071528;28;19920;-92
2024/01/15 19:52:27;;;;;;;;;;;0.00;99.90;;;;;;5054131;28;19913;-94
